sensor_id;sensor_type;location;lat;lon;timestamp;P1;durP1;ratioP1;P2;durP2;ratioP2
47539;SDS011;33280;52.152;21.052;2023-02-21T00:00:14;2.03;;;1.50;;
47539;SDS011;33280;52.152;21.052;2023-02-21T00:02:59;2.23;;;1.60;;
47539;SDS011;33280;52.152;21.052;2023-02-21T00:05:45;2.30;;;1.60;;
47539;SDS011;33280;52.152;21.052;2023-02-21T00:08:30;2.63;;;1.70;;
47539;SDS011;33280;52.152;21.052;2023-02-21T00:11:16;2.17;;;1.57;;
47539;SDS011;33280;52.152;21.052;2023-02-21T00:14:01;3.40;;;1.73;;
47539;SDS011;33280;52.152;21.052;2023-02-21T00:16:47;2.30;;;1.50;;
47539;SDS011;33280;52.152;21.052;2023-02-21T00:19:32;2.30;;;1.53;;
47539;SDS011;33280;52.152;21.052;2023-02-21T00:22:17;2.17;;;1.40;;
47539;SDS011;33280;52.152;21.052;2023-02-21T00:25:03;1.83;;;1.40;;
47539;SDS011;33280;52.152;21.052;2023-02-21T00:27:49;2.10;;;1.27;;
47539;SDS011;33280;52.152;21.052;2023-02-21T00:30:34;2.37;;;1.20;;
47539;SDS011;33280;52.152;21.052;2023-02-21T00:33:19;2.30;;;1.47;;
47539;SDS011;33280;52.152;21.052;2023-02-21T00:36:05;2.33;;;1.30;;
47539;SDS011;33280;52.152;21.052;2023-02-21T00:38:50;1.70;;;1.20;;
47539;SDS011;33280;52.152;21.052;2023-02-21T00:41:36;2.50;;;1.20;;
47539;SDS011;33280;52.152;21.052;2023-02-21T00:44:21;1.87;;;1.37;;
47539;SDS011;33280;52.152;21.052;2023-02-21T00:47:06;1.30;;;1.03;;
47539;SDS011;33280;52.152;21.052;2023-02-21T00:49:52;2.13;;;1.20;;
47539;SDS011;33280;52.152;21.052;2023-02-21T00:52:37;2.90;;;1.20;;
47539;SDS011;33280;52.152;21.052;2023-02-21T00:55:22;1.30;;;1.07;;
47539;SDS011;33280;52.152;21.052;2023-02-21T00:58:09;1.77;;;1.10;;
47539;SDS011;33280;52.152;21.052;2023-02-21T01:00:54;3.13;;;1.40;;
47539;SDS011;33280;52.152;21.052;2023-02-21T01:03:40;2.47;;;1.20;;
47539;SDS011;33280;52.152;21.052;2023-02-21T01:06:25;2.13;;;1.10;;
47539;SDS011;33280;52.152;21.052;2023-02-21T01:09:11;1.63;;;1.10;;
47539;SDS011;33280;52.152;21.052;2023-02-21T01:11:56;2.70;;;1.27;;
47539;SDS011;33280;52.152;21.052;2023-02-21T01:14:42;2.17;;;1.00;;
47539;SDS011;33280;52.152;21.052;2023-02-21T01:17:27;1.77;;;1.00;;
47539;SDS011;33280;52.152;21.052;2023-02-21T01:20:12;3.90;;;1.10;;
47539;SDS011;33280;52.152;21.052;2023-02-21T01:22:58;1.53;;;1.10;;
47539;SDS011;33280;52.152;21.052;2023-02-21T01:25:43;1.97;;;1.10;;
47539;SDS011;33280;52.152;21.052;2023-02-21T01:28:28;1.97;;;1.20;;
47539;SDS011;33280;52.152;21.052;2023-02-21T01:31:17;2.37;;;1.00;;
47539;SDS011;33280;52.152;21.052;2023-02-21T01:34:03;4.23;;;1.10;;
47539;SDS011;33280;52.152;21.052;2023-02-21T01:36:49;2.10;;;1.10;;
47539;SDS011;33280;52.152;21.052;2023-02-21T01:39:35;1.33;;;1.00;;
47539;SDS011;33280;52.152;21.052;2023-02-21T01:42:21;2.33;;;1.03;;
47539;SDS011;33280;52.152;21.052;2023-02-21T01:48:08;2.50;;;1.13;;
47539;SDS011;33280;52.152;21.052;2023-02-21T01:50:57;2.30;;;1.10;;
47539;SDS011;33280;52.152;21.052;2023-02-21T01:53:45;1.63;;;1.10;;
47539;SDS011;33280;52.152;21.052;2023-02-21T01:56:30;1.37;;;1.00;;
47539;SDS011;33280;52.152;21.052;2023-02-21T01:59:16;1.53;;;1.00;;
47539;SDS011;33280;52.152;21.052;2023-02-21T02:02:08;3.00;;;1.00;;
47539;SDS011;33280;52.152;21.052;2023-02-21T02:05:08;1.40;;;1.10;;
47539;SDS011;33280;52.152;21.052;2023-02-21T02:07:55;2.27;;;1.30;;
47539;SDS011;33280;52.152;21.052;2023-02-21T02:10:42;1.73;;;1.00;;
47539;SDS011;33280;52.152;21.052;2023-02-21T02:13:40;1.63;;;1.00;;
47539;SDS011;33280;52.152;21.052;2023-02-21T02:31:21;2.27;;;1.20;;
47539;SDS011;33280;52.152;21.052;2023-02-21T02:37:29;3.23;;;1.00;;
47539;SDS011;33280;52.152;21.052;2023-02-21T02:40:26;2.80;;;1.10;;
47539;SDS011;33280;52.152;21.052;2023-02-21T02:43:16;3.23;;;0.90;;
47539;SDS011;33280;52.152;21.052;2023-02-21T02:45:49;3.90;;;1.00;;
47539;SDS011;33280;52.152;21.052;2023-02-21T02:51:02;3.27;;;0.87;;
47539;SDS011;33280;52.152;21.052;2023-02-21T02:53:33;4.47;;;1.17;;
47539;SDS011;33280;52.152;21.052;2023-02-21T02:56:02;5.63;;;1.00;;
47539;SDS011;33280;52.152;21.052;2023-02-21T02:58:41;2.83;;;1.00;;
47539;SDS011;33280;52.152;21.052;2023-02-21T03:12:36;2.40;;;1.03;;
47539;SDS011;33280;52.152;21.052;2023-02-21T03:15:18;3.83;;;0.80;;
47539;SDS011;33280;52.152;21.052;2023-02-21T03:17:55;3.73;;;1.00;;
47539;SDS011;33280;52.152;21.052;2023-02-21T03:20:27;4.00;;;0.90;;
47539;SDS011;33280;52.152;21.052;2023-02-21T03:22:54;3.23;;;1.00;;
47539;SDS011;33280;52.152;21.052;2023-02-21T03:25:23;1.63;;;1.00;;
47539;SDS011;33280;52.152;21.052;2023-02-21T03:27:51;4.97;;;1.13;;
47539;SDS011;33280;52.152;21.052;2023-02-21T03:30:20;4.10;;;0.97;;
47539;SDS011;33280;52.152;21.052;2023-02-21T03:32:49;1.47;;;0.80;;
47539;SDS011;33280;52.152;21.052;2023-02-21T03:35:18;5.33;;;1.40;;
47539;SDS011;33280;52.152;21.052;2023-02-21T03:37:47;4.40;;;1.10;;
47539;SDS011;33280;52.152;21.052;2023-02-21T03:40:23;2.63;;;0.90;;
47539;SDS011;33280;52.152;21.052;2023-02-21T03:43:00;2.53;;;0.90;;
47539;SDS011;33280;52.152;21.052;2023-02-21T03:45:30;4.20;;;1.00;;
47539;SDS011;33280;52.152;21.052;2023-02-21T03:47:57;6.43;;;1.10;;
47539;SDS011;33280;52.152;21.052;2023-02-21T03:50:24;3.17;;;0.90;;
47539;SDS011;33280;52.152;21.052;2023-02-21T03:52:51;2.10;;;0.97;;
47539;SDS011;33280;52.152;21.052;2023-02-21T03:55:18;4.77;;;1.30;;
47539;SDS011;33280;52.152;21.052;2023-02-21T03:57:45;6.03;;;0.90;;
47539;SDS011;33280;52.152;21.052;2023-02-21T04:00:13;6.23;;;1.30;;
47539;SDS011;33280;52.152;21.052;2023-02-21T04:02:40;7.93;;;2.07;;
47539;SDS011;33280;52.152;21.052;2023-02-21T04:05:07;6.47;;;1.27;;
47539;SDS011;33280;52.152;21.052;2023-02-21T04:07:34;6.20;;;1.27;;
47539;SDS011;33280;52.152;21.052;2023-02-21T04:10:01;5.70;;;1.37;;
47539;SDS011;33280;52.152;21.052;2023-02-21T04:12:28;5.77;;;1.27;;
47539;SDS011;33280;52.152;21.052;2023-02-21T04:14:55;6.93;;;1.00;;
47539;SDS011;33280;52.152;21.052;2023-02-21T04:17:24;7.63;;;1.87;;
47539;SDS011;33280;52.152;21.052;2023-02-21T04:19:51;4.97;;;1.33;;
47539;SDS011;33280;52.152;21.052;2023-02-21T04:22:18;7.37;;;1.20;;
47539;SDS011;33280;52.152;21.052;2023-02-21T04:24:45;6.33;;;1.67;;
47539;SDS011;33280;52.152;21.052;2023-02-21T04:27:13;7.83;;;1.20;;
47539;SDS011;33280;52.152;21.052;2023-02-21T04:29:41;5.00;;;1.10;;
47539;SDS011;33280;52.152;21.052;2023-02-21T04:32:08;9.63;;;1.53;;
47539;SDS011;33280;52.152;21.052;2023-02-21T04:34:36;5.77;;;1.23;;
47539;SDS011;33280;52.152;21.052;2023-02-21T04:37:03;5.13;;;1.20;;
47539;SDS011;33280;52.152;21.052;2023-02-21T04:39:30;5.13;;;1.27;;
47539;SDS011;33280;52.152;21.052;2023-02-21T04:41:56;5.20;;;1.30;;
47539;SDS011;33280;52.152;21.052;2023-02-21T04:44:23;6.20;;;1.60;;
47539;SDS011;33280;52.152;21.052;2023-02-21T04:46:50;7.47;;;1.60;;
47539;SDS011;33280;52.152;21.052;2023-02-21T04:49:17;7.40;;;1.97;;
47539;SDS011;33280;52.152;21.052;2023-02-21T04:51:44;5.07;;;1.30;;
47539;SDS011;33280;52.152;21.052;2023-02-21T04:54:11;4.70;;;1.40;;
47539;SDS011;33280;52.152;21.052;2023-02-21T04:56:39;5.53;;;1.47;;
47539;SDS011;33280;52.152;21.052;2023-02-21T04:59:06;4.60;;;1.60;;
47539;SDS011;33280;52.152;21.052;2023-02-21T05:01:33;7.90;;;1.50;;
47539;SDS011;33280;52.152;21.052;2023-02-21T05:04:00;7.30;;;1.70;;
47539;SDS011;33280;52.152;21.052;2023-02-21T05:06:28;5.03;;;1.30;;
47539;SDS011;33280;52.152;21.052;2023-02-21T05:08:56;6.03;;;1.60;;
47539;SDS011;33280;52.152;21.052;2023-02-21T05:11:24;6.83;;;1.40;;
47539;SDS011;33280;52.152;21.052;2023-02-21T05:13:51;7.90;;;1.80;;
47539;SDS011;33280;52.152;21.052;2023-02-21T05:16:18;7.70;;;1.33;;
47539;SDS011;33280;52.152;21.052;2023-02-21T05:18:46;11.10;;;1.53;;
47539;SDS011;33280;52.152;21.052;2023-02-21T05:21:14;6.47;;;1.43;;
47539;SDS011;33280;52.152;21.052;2023-02-21T05:23:42;8.00;;;1.60;;
47539;SDS011;33280;52.152;21.052;2023-02-21T05:26:22;7.23;;;1.57;;
47539;SDS011;33280;52.152;21.052;2023-02-21T05:28:52;10.57;;;2.17;;
47539;SDS011;33280;52.152;21.052;2023-02-21T05:31:19;8.77;;;1.87;;
47539;SDS011;33280;52.152;21.052;2023-02-21T05:33:46;7.97;;;1.57;;
47539;SDS011;33280;52.152;21.052;2023-02-21T05:36:13;6.60;;;1.27;;
47539;SDS011;33280;52.152;21.052;2023-02-21T05:38:47;8.30;;;1.67;;
47539;SDS011;33280;52.152;21.052;2023-02-21T05:41:16;5.50;;;1.70;;
47539;SDS011;33280;52.152;21.052;2023-02-21T05:43:43;7.13;;;1.50;;
47539;SDS011;33280;52.152;21.052;2023-02-21T05:46:28;9.87;;;1.90;;
47539;SDS011;33280;52.152;21.052;2023-02-21T05:48:57;5.50;;;1.60;;
47539;SDS011;33280;52.152;21.052;2023-02-21T05:51:25;5.37;;;1.40;;
47539;SDS011;33280;52.152;21.052;2023-02-21T05:53:52;5.77;;;1.73;;
47539;SDS011;33280;52.152;21.052;2023-02-21T05:56:19;9.27;;;1.53;;
47539;SDS011;33280;52.152;21.052;2023-02-21T05:58:47;4.77;;;1.40;;
47539;SDS011;33280;52.152;21.052;2023-02-21T06:01:14;6.23;;;1.50;;
47539;SDS011;33280;52.152;21.052;2023-02-21T06:03:41;5.27;;;1.43;;
47539;SDS011;33280;52.152;21.052;2023-02-21T06:06:09;8.50;;;1.50;;
47539;SDS011;33280;52.152;21.052;2023-02-21T06:08:46;6.17;;;1.27;;
47539;SDS011;33280;52.152;21.052;2023-02-21T06:11:20;6.67;;;1.80;;
47539;SDS011;33280;52.152;21.052;2023-02-21T06:13:50;7.50;;;1.40;;
47539;SDS011;33280;52.152;21.052;2023-02-21T06:16:17;10.07;;;1.80;;
47539;SDS011;33280;52.152;21.052;2023-02-21T06:18:44;9.97;;;1.60;;
47539;SDS011;33280;52.152;21.052;2023-02-21T06:21:14;8.67;;;1.50;;
47539;SDS011;33280;52.152;21.052;2023-02-21T06:23:41;10.13;;;1.90;;
47539;SDS011;33280;52.152;21.052;2023-02-21T06:26:08;9.10;;;1.77;;
47539;SDS011;33280;52.152;21.052;2023-02-21T06:28:35;6.67;;;1.87;;
47539;SDS011;33280;52.152;21.052;2023-02-21T06:31:03;7.43;;;1.67;;
47539;SDS011;33280;52.152;21.052;2023-02-21T06:33:30;8.67;;;1.73;;
47539;SDS011;33280;52.152;21.052;2023-02-21T06:35:58;8.93;;;1.77;;
47539;SDS011;33280;52.152;21.052;2023-02-21T06:38:33;7.27;;;1.67;;
47539;SDS011;33280;52.152;21.052;2023-02-21T06:41:00;6.97;;;1.60;;
47539;SDS011;33280;52.152;21.052;2023-02-21T06:43:33;10.40;;;2.60;;
47539;SDS011;33280;52.152;21.052;2023-02-21T06:46:03;10.20;;;2.07;;
47539;SDS011;33280;52.152;21.052;2023-02-21T06:48:30;10.80;;;2.60;;
47539;SDS011;33280;52.152;21.052;2023-02-21T06:50:57;7.93;;;1.80;;
47539;SDS011;33280;52.152;21.052;2023-02-21T06:53:24;7.97;;;1.70;;
47539;SDS011;33280;52.152;21.052;2023-02-21T06:55:51;10.20;;;2.23;;
47539;SDS011;33280;52.152;21.052;2023-02-21T06:58:18;8.70;;;1.97;;
47539;SDS011;33280;52.152;21.052;2023-02-21T07:00:45;6.50;;;1.80;;
47539;SDS011;33280;52.152;21.052;2023-02-21T07:03:12;11.03;;;1.97;;
47539;SDS011;33280;52.152;21.052;2023-02-21T07:05:42;7.60;;;1.87;;
47539;SDS011;33280;52.152;21.052;2023-02-21T07:08:09;8.93;;;1.53;;
47539;SDS011;33280;52.152;21.052;2023-02-21T07:10:36;7.87;;;2.00;;
47539;SDS011;33280;52.152;21.052;2023-02-21T07:13:03;11.00;;;1.90;;
47539;SDS011;33280;52.152;21.052;2023-02-21T07:15:30;8.40;;;1.67;;
47539;SDS011;33280;52.152;21.052;2023-02-21T07:17:57;7.87;;;1.90;;
47539;SDS011;33280;52.152;21.052;2023-02-21T07:20:24;7.93;;;1.73;;
47539;SDS011;33280;52.152;21.052;2023-02-21T07:22:51;7.37;;;1.80;;
47539;SDS011;33280;52.152;21.052;2023-02-21T07:25:19;9.23;;;1.87;;
47539;SDS011;33280;52.152;21.052;2023-02-21T07:27:47;6.90;;;1.93;;
47539;SDS011;33280;52.152;21.052;2023-02-21T07:30:15;8.93;;;1.83;;
47539;SDS011;33280;52.152;21.052;2023-02-21T07:32:42;10.17;;;1.70;;
47539;SDS011;33280;52.152;21.052;2023-02-21T07:35:09;9.70;;;1.97;;
47539;SDS011;33280;52.152;21.052;2023-02-21T07:37:36;8.63;;;1.87;;
47539;SDS011;33280;52.152;21.052;2023-02-21T07:40:03;10.60;;;2.30;;
47539;SDS011;33280;52.152;21.052;2023-02-21T07:42:33;9.47;;;2.10;;
47539;SDS011;33280;52.152;21.052;2023-02-21T07:45:01;6.03;;;1.60;;
47539;SDS011;33280;52.152;21.052;2023-02-21T07:47:29;9.73;;;1.80;;
47539;SDS011;33280;52.152;21.052;2023-02-21T07:49:56;12.40;;;2.13;;
47539;SDS011;33280;52.152;21.052;2023-02-21T07:52:23;11.80;;;2.40;;
47539;SDS011;33280;52.152;21.052;2023-02-21T07:54:50;7.50;;;1.90;;
47539;SDS011;33280;52.152;21.052;2023-02-21T07:57:17;10.40;;;2.03;;
47539;SDS011;33280;52.152;21.052;2023-02-21T07:59:46;8.50;;;1.93;;
47539;SDS011;33280;52.152;21.052;2023-02-21T08:02:14;8.77;;;2.17;;
47539;SDS011;33280;52.152;21.052;2023-02-21T08:04:41;10.07;;;2.10;;
47539;SDS011;33280;52.152;21.052;2023-02-21T08:07:08;10.40;;;2.00;;
47539;SDS011;33280;52.152;21.052;2023-02-21T08:09:35;9.67;;;2.00;;
47539;SDS011;33280;52.152;21.052;2023-02-21T08:12:03;6.27;;;1.60;;
47539;SDS011;33280;52.152;21.052;2023-02-21T08:14:30;11.17;;;2.60;;
47539;SDS011;33280;52.152;21.052;2023-02-21T08:16:58;8.10;;;1.97;;
47539;SDS011;33280;52.152;21.052;2023-02-21T08:19:25;9.93;;;1.87;;
47539;SDS011;33280;52.152;21.052;2023-02-21T08:21:52;10.30;;;2.20;;
47539;SDS011;33280;52.152;21.052;2023-02-21T08:24:19;8.57;;;1.90;;
47539;SDS011;33280;52.152;21.052;2023-02-21T08:26:46;11.93;;;2.30;;
47539;SDS011;33280;52.152;21.052;2023-02-21T08:29:13;9.13;;;1.93;;
47539;SDS011;33280;52.152;21.052;2023-02-21T08:31:43;10.00;;;2.30;;
47539;SDS011;33280;52.152;21.052;2023-02-21T08:34:10;9.97;;;2.10;;
47539;SDS011;33280;52.152;21.052;2023-02-21T08:36:41;8.67;;;2.10;;
47539;SDS011;33280;52.152;21.052;2023-02-21T08:39:09;9.43;;;2.00;;
47539;SDS011;33280;52.152;21.052;2023-02-21T08:41:40;8.93;;;1.93;;
47539;SDS011;33280;52.152;21.052;2023-02-21T08:44:09;10.17;;;2.23;;
47539;SDS011;33280;52.152;21.052;2023-02-21T08:46:37;10.73;;;2.20;;
47539;SDS011;33280;52.152;21.052;2023-02-21T08:49:08;8.93;;;2.17;;
47539;SDS011;33280;52.152;21.052;2023-02-21T08:51:35;12.13;;;2.10;;
47539;SDS011;33280;52.152;21.052;2023-02-21T08:54:02;8.60;;;2.20;;
47539;SDS011;33280;52.152;21.052;2023-02-21T08:56:29;12.70;;;2.13;;
47539;SDS011;33280;52.152;21.052;2023-02-21T08:58:56;12.80;;;2.27;;
47539;SDS011;33280;52.152;21.052;2023-02-21T09:01:23;13.03;;;2.40;;
47539;SDS011;33280;52.152;21.052;2023-02-21T09:03:55;13.03;;;2.50;;
47539;SDS011;33280;52.152;21.052;2023-02-21T09:06:22;8.33;;;2.10;;
47539;SDS011;33280;52.152;21.052;2023-02-21T09:08:49;7.80;;;2.00;;
47539;SDS011;33280;52.152;21.052;2023-02-21T09:11:16;8.90;;;2.00;;
47539;SDS011;33280;52.152;21.052;2023-02-21T09:13:43;10.17;;;2.33;;
47539;SDS011;33280;52.152;21.052;2023-02-21T09:16:10;12.37;;;2.23;;
47539;SDS011;33280;52.152;21.052;2023-02-21T09:18:36;11.43;;;2.53;;
47539;SDS011;33280;52.152;21.052;2023-02-21T09:21:04;11.83;;;2.20;;
47539;SDS011;33280;52.152;21.052;2023-02-21T09:23:32;7.00;;;1.97;;
47539;SDS011;33280;52.152;21.052;2023-02-21T09:25:59;12.00;;;2.53;;
47539;SDS011;33280;52.152;21.052;2023-02-21T09:28:26;10.47;;;2.07;;
47539;SDS011;33280;52.152;21.052;2023-02-21T09:30:54;10.40;;;2.33;;
47539;SDS011;33280;52.152;21.052;2023-02-21T09:33:21;9.90;;;2.20;;
47539;SDS011;33280;52.152;21.052;2023-02-21T09:35:50;12.23;;;2.03;;
47539;SDS011;33280;52.152;21.052;2023-02-21T09:38:19;9.70;;;1.93;;
47539;SDS011;33280;52.152;21.052;2023-02-21T09:40:49;9.77;;;2.10;;
47539;SDS011;33280;52.152;21.052;2023-02-21T09:43:30;12.07;;;2.17;;
47539;SDS011;33280;52.152;21.052;2023-02-21T09:46:07;11.43;;;2.50;;
47539;SDS011;33280;52.152;21.052;2023-02-21T09:48:40;8.63;;;1.90;;
47539;SDS011;33280;52.152;21.052;2023-02-21T09:51:08;8.97;;;2.20;;
47539;SDS011;33280;52.152;21.052;2023-02-21T09:53:39;10.93;;;2.00;;
47539;SDS011;33280;52.152;21.052;2023-02-21T09:56:13;13.13;;;2.97;;
47539;SDS011;33280;52.152;21.052;2023-02-21T09:58:43;12.23;;;2.47;;
47539;SDS011;33280;52.152;21.052;2023-02-21T10:01:15;10.60;;;2.37;;
47539;SDS011;33280;52.152;21.052;2023-02-21T10:09:48;10.13;;;2.00;;
47539;SDS011;33280;52.152;21.052;2023-02-21T10:17:53;7.47;;;2.20;;
47539;SDS011;33280;52.152;21.052;2023-02-21T10:20:28;9.73;;;2.20;;
47539;SDS011;33280;52.152;21.052;2023-02-21T10:23:01;8.17;;;2.47;;
47539;SDS011;33280;52.152;21.052;2023-02-21T10:25:31;8.67;;;2.10;;
47539;SDS011;33280;52.152;21.052;2023-02-21T10:28:00;8.80;;;2.70;;
47539;SDS011;33280;52.152;21.052;2023-02-21T10:30:35;5.60;;;2.10;;
47539;SDS011;33280;52.152;21.052;2023-02-21T10:33:03;7.90;;;2.20;;
47539;SDS011;33280;52.152;21.052;2023-02-21T10:35:35;8.37;;;2.07;;
47539;SDS011;33280;52.152;21.052;2023-02-21T10:38:05;9.33;;;2.50;;
47539;SDS011;33280;52.152;21.052;2023-02-21T10:40:50;9.80;;;2.33;;
47539;SDS011;33280;52.152;21.052;2023-02-21T10:48:49;4.97;;;2.00;;
47539;SDS011;33280;52.152;21.052;2023-02-21T10:51:32;10.80;;;2.10;;
47539;SDS011;33280;52.152;21.052;2023-02-21T10:54:15;9.27;;;2.20;;
47539;SDS011;33280;52.152;21.052;2023-02-21T10:56:46;9.20;;;1.97;;
47539;SDS011;33280;52.152;21.052;2023-02-21T10:59:34;8.90;;;2.13;;
47539;SDS011;33280;52.152;21.052;2023-02-21T11:02:20;10.40;;;2.10;;
47539;SDS011;33280;52.152;21.052;2023-02-21T11:05:08;8.80;;;2.10;;
47539;SDS011;33280;52.152;21.052;2023-02-21T11:10:28;7.20;;;2.20;;
47539;SDS011;33280;52.152;21.052;2023-02-21T11:13:01;8.60;;;2.00;;
47539;SDS011;33280;52.152;21.052;2023-02-21T11:15:30;5.70;;;1.97;;
47539;SDS011;33280;52.152;21.052;2023-02-21T11:18:02;5.37;;;1.80;;
47539;SDS011;33280;52.152;21.052;2023-02-21T11:20:31;8.27;;;2.40;;
47539;SDS011;33280;52.152;21.052;2023-02-21T11:22:58;9.07;;;2.00;;
47539;SDS011;33280;52.152;21.052;2023-02-21T11:25:29;6.17;;;1.90;;
47539;SDS011;33280;52.152;21.052;2023-02-21T11:27:58;7.40;;;2.30;;
47539;SDS011;33280;52.152;21.052;2023-02-21T11:33:29;6.00;;;1.90;;
47539;SDS011;33280;52.152;21.052;2023-02-21T11:36:12;8.70;;;2.10;;
47539;SDS011;33280;52.152;21.052;2023-02-21T11:38:41;7.50;;;1.80;;
47539;SDS011;33280;52.152;21.052;2023-02-21T11:41:29;10.07;;;2.10;;
47539;SDS011;33280;52.152;21.052;2023-02-21T11:44:20;8.07;;;2.10;;
47539;SDS011;33280;52.152;21.052;2023-02-21T11:47:04;8.37;;;2.23;;
47539;SDS011;33280;52.152;21.052;2023-02-21T11:52:32;6.80;;;2.03;;
47539;SDS011;33280;52.152;21.052;2023-02-21T11:55:00;8.70;;;1.87;;
47539;SDS011;33280;52.152;21.052;2023-02-21T12:00:36;7.37;;;2.20;;
47539;SDS011;33280;52.152;21.052;2023-02-21T12:14:36;6.77;;;1.67;;
47539;SDS011;33280;52.152;21.052;2023-02-21T12:23:06;7.97;;;1.73;;
47539;SDS011;33280;52.152;21.052;2023-02-21T12:33:48;8.33;;;1.90;;
47539;SDS011;33280;52.152;21.052;2023-02-21T12:39:06;6.77;;;1.70;;
47539;SDS011;33280;52.152;21.052;2023-02-21T12:50:34;8.80;;;2.10;;
47539;SDS011;33280;52.152;21.052;2023-02-21T12:56:01;8.37;;;1.83;;
47539;SDS011;33280;52.152;21.052;2023-02-21T12:58:44;6.83;;;1.77;;
47539;SDS011;33280;52.152;21.052;2023-02-21T13:01:33;5.70;;;2.23;;
47539;SDS011;33280;52.152;21.052;2023-02-21T13:04:11;6.77;;;1.80;;
47539;SDS011;33280;52.152;21.052;2023-02-21T13:07:03;5.40;;;1.87;;
47539;SDS011;33280;52.152;21.052;2023-02-21T13:09:49;7.63;;;2.07;;
47539;SDS011;33280;52.152;21.052;2023-02-21T13:15:18;6.47;;;1.77;;
47539;SDS011;33280;52.152;21.052;2023-02-21T13:17:56;8.53;;;2.17;;
47539;SDS011;33280;52.152;21.052;2023-02-21T13:20:40;7.53;;;2.57;;
47539;SDS011;33280;52.152;21.052;2023-02-21T13:29:12;8.57;;;3.00;;
47539;SDS011;33280;52.152;21.052;2023-02-21T13:31:47;9.03;;;3.00;;
47539;SDS011;33280;52.152;21.052;2023-02-21T13:34:35;9.67;;;3.00;;
47539;SDS011;33280;52.152;21.052;2023-02-21T13:37:07;11.67;;;3.47;;
47539;SDS011;33280;52.152;21.052;2023-02-21T13:39:49;10.37;;;3.33;;
47539;SDS011;33280;52.152;21.052;2023-02-21T13:42:23;10.43;;;3.63;;
47539;SDS011;33280;52.152;21.052;2023-02-21T13:53:20;11.73;;;3.00;;
47539;SDS011;33280;52.152;21.052;2023-02-21T13:56:10;8.73;;;2.90;;
47539;SDS011;33280;52.152;21.052;2023-02-21T13:58:40;9.03;;;2.80;;
47539;SDS011;33280;52.152;21.052;2023-02-21T14:03:56;11.23;;;2.93;;
47539;SDS011;33280;52.152;21.052;2023-02-21T14:09:02;11.30;;;2.43;;
47539;SDS011;33280;52.152;21.052;2023-02-21T14:11:43;10.43;;;2.60;;
47539;SDS011;33280;52.152;21.052;2023-02-21T14:14:29;10.87;;;2.50;;
47539;SDS011;33280;52.152;21.052;2023-02-21T14:17:04;16.50;;;3.97;;
47539;SDS011;33280;52.152;21.052;2023-02-21T14:19:41;8.73;;;2.37;;
47539;SDS011;33280;52.152;21.052;2023-02-21T14:22:23;11.37;;;2.17;;
47539;SDS011;33280;52.152;21.052;2023-02-21T14:25:03;9.67;;;2.37;;
47539;SDS011;33280;52.152;21.052;2023-02-21T14:27:41;12.13;;;2.47;;
47539;SDS011;33280;52.152;21.052;2023-02-21T14:37:53;8.43;;;2.20;;
47539;SDS011;33280;52.152;21.052;2023-02-21T14:43:02;12.10;;;2.77;;
47539;SDS011;33280;52.152;21.052;2023-02-21T14:48:49;9.23;;;2.40;;
47539;SDS011;33280;52.152;21.052;2023-02-21T15:00:03;12.73;;;3.07;;
47539;SDS011;33280;52.152;21.052;2023-02-21T15:05:17;12.03;;;2.50;;
47539;SDS011;33280;52.152;21.052;2023-02-21T15:12:54;16.20;;;3.20;;
47539;SDS011;33280;52.152;21.052;2023-02-21T15:15:28;14.03;;;3.17;;
47539;SDS011;33280;52.152;21.052;2023-02-21T15:18:10;11.07;;;3.10;;
47539;SDS011;33280;52.152;21.052;2023-02-21T15:21:00;19.60;;;3.57;;
47539;SDS011;33280;52.152;21.052;2023-02-21T15:23:27;12.10;;;3.07;;
47539;SDS011;33280;52.152;21.052;2023-02-21T15:25:58;15.57;;;3.20;;
47539;SDS011;33280;52.152;21.052;2023-02-21T15:28:41;16.03;;;3.20;;
47539;SDS011;33280;52.152;21.052;2023-02-21T15:31:08;14.27;;;3.10;;
47539;SDS011;33280;52.152;21.052;2023-02-21T15:33:37;14.90;;;3.20;;
47539;SDS011;33280;52.152;21.052;2023-02-21T15:36:17;17.77;;;3.30;;
47539;SDS011;33280;52.152;21.052;2023-02-21T15:41:29;17.17;;;3.87;;
47539;SDS011;33280;52.152;21.052;2023-02-21T15:46:57;14.63;;;3.97;;
47539;SDS011;33280;52.152;21.052;2023-02-21T15:49:46;17.10;;;3.83;;
47539;SDS011;33280;52.152;21.052;2023-02-21T15:57:46;15.17;;;3.07;;
47539;SDS011;33280;52.152;21.052;2023-02-21T16:00:31;15.47;;;3.17;;
47539;SDS011;33280;52.152;21.052;2023-02-21T16:16:42;19.17;;;4.20;;
47539;SDS011;33280;52.152;21.052;2023-02-21T16:19:09;17.27;;;3.30;;
47539;SDS011;33280;52.152;21.052;2023-02-21T16:21:36;17.67;;;3.57;;
47539;SDS011;33280;52.152;21.052;2023-02-21T16:27:09;19.70;;;3.83;;
47539;SDS011;33280;52.152;21.052;2023-02-21T16:29:38;16.87;;;4.20;;
47539;SDS011;33280;52.152;21.052;2023-02-21T16:32:05;17.93;;;4.60;;
47539;SDS011;33280;52.152;21.052;2023-02-21T16:34:42;22.90;;;4.57;;
47539;SDS011;33280;52.152;21.052;2023-02-21T16:37:09;18.47;;;4.07;;
47539;SDS011;33280;52.152;21.052;2023-02-21T16:39:39;18.23;;;4.10;;
47539;SDS011;33280;52.152;21.052;2023-02-21T16:42:07;25.23;;;4.80;;
47539;SDS011;33280;52.152;21.052;2023-02-21T16:44:34;22.57;;;4.77;;
47539;SDS011;33280;52.152;21.052;2023-02-21T16:47:01;20.13;;;4.50;;
47539;SDS011;33280;52.152;21.052;2023-02-21T16:49:28;16.30;;;3.97;;
47539;SDS011;33280;52.152;21.052;2023-02-21T16:51:56;17.17;;;3.53;;
47539;SDS011;33280;52.152;21.052;2023-02-21T16:54:27;17.53;;;3.77;;
47539;SDS011;33280;52.152;21.052;2023-02-21T16:56:54;18.77;;;4.73;;
47539;SDS011;33280;52.152;21.052;2023-02-21T16:59:21;19.33;;;4.37;;
47539;SDS011;33280;52.152;21.052;2023-02-21T17:01:50;16.13;;;3.93;;
47539;SDS011;33280;52.152;21.052;2023-02-21T17:04:21;18.27;;;4.03;;
47539;SDS011;33280;52.152;21.052;2023-02-21T17:06:59;22.00;;;4.37;;
47539;SDS011;33280;52.152;21.052;2023-02-21T17:09:29;17.13;;;4.50;;
47539;SDS011;33280;52.152;21.052;2023-02-21T17:11:59;15.37;;;3.73;;
47539;SDS011;33280;52.152;21.052;2023-02-21T17:14:26;20.10;;;4.27;;
47539;SDS011;33280;52.152;21.052;2023-02-21T17:16:53;19.07;;;4.27;;
47539;SDS011;33280;52.152;21.052;2023-02-21T17:19:22;21.97;;;4.07;;
47539;SDS011;33280;52.152;21.052;2023-02-21T17:21:50;17.40;;;4.40;;
47539;SDS011;33280;52.152;21.052;2023-02-21T17:24:19;24.33;;;4.87;;
47539;SDS011;33280;52.152;21.052;2023-02-21T17:26:46;18.20;;;4.17;;
47539;SDS011;33280;52.152;21.052;2023-02-21T17:29:12;20.80;;;5.30;;
47539;SDS011;33280;52.152;21.052;2023-02-21T17:31:39;20.50;;;4.63;;
47539;SDS011;33280;52.152;21.052;2023-02-21T17:34:06;23.30;;;4.80;;
47539;SDS011;33280;52.152;21.052;2023-02-21T17:36:33;14.23;;;3.90;;
47539;SDS011;33280;52.152;21.052;2023-02-21T17:39:00;20.30;;;4.70;;
47539;SDS011;33280;52.152;21.052;2023-02-21T17:41:28;19.93;;;5.13;;
47539;SDS011;33280;52.152;21.052;2023-02-21T17:43:55;17.30;;;4.27;;
47539;SDS011;33280;52.152;21.052;2023-02-21T17:46:25;18.07;;;4.47;;
47539;SDS011;33280;52.152;21.052;2023-02-21T17:48:52;23.33;;;5.13;;
47539;SDS011;33280;52.152;21.052;2023-02-21T17:51:22;18.50;;;4.70;;
47539;SDS011;33280;52.152;21.052;2023-02-21T17:53:52;18.97;;;4.43;;
47539;SDS011;33280;52.152;21.052;2023-02-21T17:56:20;18.57;;;4.30;;
47539;SDS011;33280;52.152;21.052;2023-02-21T17:58:49;19.60;;;5.33;;
47539;SDS011;33280;52.152;21.052;2023-02-21T18:01:17;23.73;;;5.07;;
47539;SDS011;33280;52.152;21.052;2023-02-21T18:03:48;19.97;;;4.43;;
47539;SDS011;33280;52.152;21.052;2023-02-21T18:06:15;19.53;;;4.40;;
47539;SDS011;33280;52.152;21.052;2023-02-21T18:08:42;18.63;;;4.53;;